Time;durP1;ratioP1;P1;durP2;ratioP2;P2;SDS_P1;SDS_P2;PMS_P1;PMS_P2;Temp;Humidity;BMP_temperature;BMP_pressure;BME280_temperature;BME280_humidity;BME280_pressure;Samples;Min_cycle;Max_cycle;Signal;HPM_P1;HPM_P2
2022/07/27 00:02:07;;;;;;;3.25;3.00;;;;;;;25.54;100.00;152461.81;5095565;28;20188;-65
2022/07/27 00:04:34;;;;;;;3.67;3.47;;;;;;;25.38;100.00;152422.13;5095211;28;20194;-65
2022/07/27 00:07:01;;;;;;;3.10;3.00;;;;;;;25.31;100.00;152404.25;5095556;28;20192;-66
2022/07/27 00:09:28;;;;;;;3.45;3.25;;;;;;;25.10;100.00;152351.88;5095758;28;20554;-66
2022/07/27 00:11:56;;;;;;;3.58;3.38;;;;;;;24.94;100.00;152312.28;5095632;28;20228;-64
2022/07/27 00:14:23;;;;;;;3.25;3.05;;;;;;;24.72;100.00;152256.03;5095448;28;20198;-65
2022/07/27 00:16:50;;;;;;;3.08;2.95;;;;;;;24.65;100.00;152236.88;5095071;28;20195;-64
2022/07/27 00:19:18;;;;;;;3.38;3.17;;;;;;;24.48;100.00;152194.75;5095186;28;20191;-65
2022/07/27 00:21:45;;;;;;;3.22;3.13;;;;;;;24.58;100.00;152220.25;5095057;28;20195;-64
2022/07/27 00:24:12;;;;;;;3.15;2.92;;;;;;;24.50;100.00;152201.13;5095308;28;20187;-64
2022/07/27 00:26:39;;;;;;;4.65;3.58;;;;;;;24.37;100.00;152166.63;5095464;28;20191;-65
2022/07/27 00:29:08;;;;;;;4.07;3.63;;;;;;;24.18;100.00;152118.13;5095066;28;20180;-64
2022/07/27 00:31:34;;;;;;;3.97;3.67;;;;;;;24.19;100.00;152120.69;5093914;28;20224;-64
2022/07/27 00:34:01;;;;;;;3.40;3.30;;;;;;;23.92;100.00;152054.25;5093747;28;20206;-64
2022/07/27 00:36:28;;;;;;;4.13;3.75;;;;;;;24.17;100.00;152115.56;5094941;28;20188;-64
2022/07/27 00:38:55;;;;;;;3.50;3.30;;;;;;;24.13;100.00;152107.88;5094580;28;20200;-64
2022/07/27 00:41:22;;;;;;;5.03;3.20;;;;;;;23.98;100.00;152069.53;5094926;28;20708;-64
2022/07/27 00:43:50;;;;;;;3.97;3.40;;;;;;;24.09;100.00;152096.38;5095377;28;20199;-65
2022/07/27 00:46:18;;;;;;;3.28;3.17;;;;;;;24.20;100.00;152124.50;5094988;28;20622;-65
2022/07/27 00:48:45;;;;;;;3.08;2.97;;;;;;;24.35;100.00;152161.53;5094739;28;20196;-66
2022/07/27 00:51:14;;;;;;;3.42;3.00;;;;;;;24.49;100.00;152197.25;5094316;28;20220;-65
2022/07/27 00:53:41;;;;;;;3.42;2.90;;;;;;;24.51;100.00;152202.41;5094610;28;20188;-65
2022/07/27 00:56:08;;;;;;;3.15;3.05;;;;;;;24.68;100.00;152244.53;5094823;28;20188;-64
2022/07/27 00:58:36;;;;;;;3.33;3.22;;;;;;;24.83;100.00;152282.84;5094284;28;20207;-65
2022/07/27 01:01:02;;;;;;;2.80;2.60;;;;;;;24.88;100.00;152295.66;5094725;28;20184;-64
2022/07/27 01:03:31;;;;;;;3.22;3.08;;;;;;;24.89;100.00;152299.50;5094395;28;20184;-65
2022/07/27 01:05:58;;;;;;;4.22;2.88;;;;;;;25.00;100.00;152327.59;5094203;28;20203;-64
2022/07/27 01:08:25;;;;;;;3.72;3.53;;;;;;;24.99;100.00;152325.03;5094128;28;20184;-65
2022/07/27 01:10:55;;;;;;;3.10;3.00;;;;;;;24.94;100.00;152312.28;5093324;28;20184;-65
2022/07/27 01:13:22;;;;;;;3.15;3.05;;;;;;;24.94;100.00;152312.28;5093841;28;20239;-64
2022/07/27 01:15:49;;;;;;;3.03;2.90;;;;;;;24.97;100.00;152319.94;5094454;28;20237;-64
2022/07/27 01:18:28;;;;;;;3.13;2.92;;;;;;;24.98;100.00;152321.22;5093767;28;20214;-64
2022/07/27 01:20:57;;;;;;;3.00;2.90;;;;;;;24.98;100.00;152322.50;5094174;28;20188;-65
2022/07/27 01:23:26;;;;;;;3.55;3.15;;;;;;;25.00;100.00;152326.31;5094471;28;20718;-65
2022/07/27 01:25:53;;;;;;;2.92;2.70;;;;;;;25.03;100.00;152334.00;5093940;28;20274;-64
2022/07/27 01:28:21;;;;;;;3.33;3.03;;;;;;;24.96;100.00;152317.38;5092401;28;20259;-64
2022/07/27 01:30:50;;;;;;;3.33;3.22;;;;;;;24.85;100.00;152287.97;5093666;28;20192;-64
2022/07/27 01:33:17;;;;;;;3.20;3.08;;;;;;;24.74;100.00;152259.88;5094133;28;20279;-65
2022/07/27 01:35:44;;;;;;;3.60;3.25;;;;;;;24.71;100.00;152253.47;5093898;28;20188;-64
2022/07/27 01:38:12;;;;;;;3.55;3.30;;;;;;;24.53;100.00;152207.47;5094314;28;20204;-65
2022/07/27 01:40:40;;;;;;;3.70;3.45;;;;;;;24.31;100.00;152152.63;5093722;28;20195;-65
2022/07/27 01:43:07;;;;;;;3.20;3.10;;;;;;;24.25;100.00;152136.00;5093540;28;20200;-65
2022/07/27 01:45:34;;;;;;;3.78;3.53;;;;;;;24.11;100.00;152102.75;5093620;28;20184;-65
2022/07/27 01:48:01;;;;;;;3.63;3.40;;;;;;;23.98;100.00;152069.53;5093246;28;20188;-64
2022/07/27 01:50:28;;;;;;;4.50;3.40;;;;;;;23.76;100.00;152013.41;5093780;28;20192;-63
2022/07/27 01:52:55;;;;;;;4.30;3.30;;;;;;;23.72;100.00;152001.94;5093482;28;20190;-65
2022/07/27 01:55:22;;;;;;;4.30;3.50;;;;;;;23.34;100.00;151906.16;5093261;28;20266;-65
2022/07/27 01:57:51;;;;;;;3.65;3.30;;;;;;;23.46;100.00;151936.84;5093183;28;20212;-66
2022/07/27 02:00:18;;;;;;;4.57;3.35;;;;;;;23.22;100.00;151878.06;5093525;28;20185;-65
2022/07/27 02:02:44;;;;;;;3.60;3.40;;;;;;;23.19;100.00;151869.13;5093368;28;20653;-65
2022/07/27 02:05:11;;;;;;;6.78;3.83;;;;;;;23.30;100.00;151895.97;5093236;28;20188;-65
2022/07/27 02:07:39;;;;;;;3.53;3.33;;;;;;;23.19;100.00;151870.41;5093401;28;20612;-65
2022/07/27 02:10:07;;;;;;;3.95;3.75;;;;;;;23.20;100.00;151871.69;5092884;28;20220;-65
2022/07/27 02:12:36;;;;;;;4.72;3.70;;;;;;;23.13;100.00;151855.09;5092910;28;20242;-64
2022/07/27 02:15:06;;;;;;;4.85;4.65;;;;;;;23.11;100.00;151848.72;5092994;28;20187;-65
2022/07/27 02:17:33;;;;;;;3.60;3.40;;;;;;;23.07;100.00;151838.53;5093443;28;20195;-65
2022/07/27 02:20:00;;;;;;;4.53;3.95;;;;;;;22.82;100.00;151776.03;5092899;28;20180;-64
2022/07/27 02:22:27;;;;;;;5.22;3.75;;;;;;;22.45;100.00;151681.59;5092507;28;20283;-65
2022/07/27 02:24:54;;;;;;;4.40;4.10;;;;;;;22.15;100.00;151607.59;5093301;28;20557;-64
2022/07/27 02:27:23;;;;;;;4.53;4.13;;;;;;;22.19;100.00;151617.81;5092651;28;20195;-64
2022/07/27 02:29:51;;;;;;;4.90;4.50;;;;;;;22.23;100.00;151626.78;5092860;28;20690;-64
2022/07/27 02:32:19;;;;;;;4.30;4.10;;;;;;;22.26;100.00;151634.41;5092740;28;20190;-65
2022/07/27 02:34:46;;;;;;;4.50;4.13;;;;;;;22.30;100.00;151644.59;5092791;28;20191;-65
2022/07/27 02:37:14;;;;;;;9.07;4.32;;;;;;;21.97;100.00;151561.75;5092988;28;20577;-65
2022/07/27 02:39:41;;;;;;;4.32;3.97;;;;;;;21.92;100.00;151549.00;5092598;28;20713;-64
2022/07/27 02:42:08;;;;;;;5.20;4.30;;;;;;;21.64;100.00;151477.56;5092786;28;20546;-65
2022/07/27 02:44:35;;;;;;;4.90;4.70;;;;;;;21.61;100.00;151471.16;5092862;28;20202;-64
2022/07/27 02:47:02;;;;;;;4.82;4.35;;;;;;;21.55;100.00;151454.63;5092499;28;20188;-65
2022/07/27 02:49:30;;;;;;;5.20;4.70;;;;;;;21.48;100.00;151438.03;5092496;28;20184;-64
2022/07/27 02:51:57;;;;;;;6.20;4.50;;;;;;;21.49;100.00;151440.59;5092388;28;20195;-64
2022/07/27 02:54:25;;;;;;;4.40;4.18;;;;;;;21.28;100.00;151388.34;5092527;28;20180;-65
2022/07/27 02:56:53;;;;;;;5.45;4.03;;;;;;;21.24;100.00;151376.88;5092275;28;20180;-65
2022/07/27 02:59:20;;;;;;;4.20;3.78;;;;;;;21.31;100.00;151395.97;5092948;28;20215;-64
2022/07/27 03:01:48;;;;;;;5.13;4.25;;;;;;;21.43;100.00;151425.28;5092298;28;20203;-65
2022/07/27 03:04:15;;;;;;;4.07;3.80;;;;;;;21.58;100.00;151462.25;5092228;28;20192;-64
2022/07/27 03:06:44;;;;;;;6.28;4.70;;;;;;;21.67;100.00;151485.22;5093039;28;20192;-64
2022/07/27 03:09:11;;;;;;;7.25;4.07;;;;;;;21.75;100.00;151506.88;5092928;28;20579;-64
2022/07/27 03:11:39;;;;;;;5.20;3.97;;;;;;;21.84;100.00;151529.81;5092389;28;20188;-64
2022/07/27 03:14:06;;;;;;;5.20;4.45;;;;;;;21.93;100.00;151551.53;5092091;28;20184;-65
2022/07/27 03:16:32;;;;;;;5.07;4.72;;;;;;;21.99;100.00;151566.81;5091964;28;20192;-65
2022/07/27 03:18:59;;;;;;;6.07;4.50;;;;;;;22.04;100.00;151578.28;5091751;28;20214;-64
2022/07/27 03:21:26;;;;;;;12.63;4.97;;;;;;;22.15;100.00;151607.59;5092067;28;20193;-64
2022/07/27 03:23:55;;;;;;;4.50;4.18;;;;;;;22.12;100.00;151599.97;5092067;28;20192;-65
2022/07/27 03:26:23;;;;;;;7.40;4.63;;;;;;;22.18;100.00;151615.28;5092192;28;20185;-64
2022/07/27 03:28:50;;;;;;;5.45;4.13;;;;;;;22.83;100.00;151778.53;5092055;28;20180;-65
2022/07/27 03:31:17;;;;;;;5.20;4.72;;;;;;;23.31;100.00;151898.47;5091707;28;20181;-64
2022/07/27 03:33:45;;;;;;;6.95;4.68;;;;;;;23.55;100.00;151959.81;5092784;28;20254;-63
2022/07/27 03:36:12;;;;;;;13.35;5.53;;;;;;;24.02;100.00;152079.75;5095901;28;20188;-64
2022/07/27 03:38:38;;;;;;;7.90;4.82;;;;;;;24.12;100.00;152104.03;5095993;28;20214;-64
2022/07/27 03:41:07;;;;;;;5.95;5.00;;;;;;;23.98;100.00;152068.25;5096037;28;20191;-64
2022/07/27 03:43:34;;;;;;;14.85;5.30;;;;;;;24.00;100.00;152074.69;5096176;28;20553;-64
2022/07/27 03:46:01;;;;;;;9.77;4.88;;;;;;;24.14;100.00;152110.38;5095767;28;20191;-64
2022/07/27 03:48:28;;;;;;;11.60;4.82;;;;;;;24.24;100.00;152134.72;5095946;28;20180;-64
2022/07/27 03:50:55;;;;;;;11.00;5.22;;;;;;;24.27;100.00;152141.13;5096262;28;20631;-64
2022/07/27 03:53:22;;;;;;;5.43;4.93;;;;;;;24.65;100.00;152238.16;5096022;28;20184;-64
2022/07/27 03:55:49;;;;;;;16.30;6.05;;;;;;;25.24;100.00;152387.69;5095893;28;20275;-65
2022/07/27 03:58:18;;;;;;;10.50;6.30;;;;;;;25.65;100.00;152491.22;5095648;28;20204;-64
2022/07/27 04:00:45;;;;;;;8.43;6.30;;;;;;;25.77;100.00;152521.88;5096201;28;20186;-65
2022/07/27 04:03:12;;;;;;;15.00;6.97;;;;;;;25.98;100.00;152574.28;5095963;28;20582;-65
2022/07/27 04:05:39;;;;;;;13.50;7.50;;;;;;;26.29;100.00;152653.59;5096133;28;20210;-64
2022/07/27 04:08:06;;;;;;;18.35;7.07;;;;;;;26.49;100.00;152703.44;5096206;28;20557;-64
2022/07/27 04:10:33;;;;;;;19.38;7.28;;;;;;;26.56;100.00;152720.09;5095919;28;20187;-65
2022/07/27 04:13:00;;;;;;;21.33;7.60;;;;;;;26.69;100.00;152754.59;5095547;28;20232;-65
2022/07/27 04:15:28;;;;;;;21.83;7.50;;;;;;;26.74;100.00;152766.09;5094856;28;20626;-64
2022/07/27 04:17:55;;;;;;;25.15;7.25;;;;;;;26.87;100.00;152798.13;5096268;28;20242;-65
2022/07/27 04:20:22;;;;;;;18.63;7.13;;;;;;;27.07;100.00;152849.31;5095301;28;20223;-65
2022/07/27 04:22:49;;;;;;;15.50;6.65;;;;;;;27.26;100.00;152899.19;5095903;28;20647;-64
2022/07/27 04:25:16;;;;;;;14.55;5.80;;;;;;;27.55;100.00;152970.88;5095673;28;20188;-65
2022/07/27 04:27:43;;;;;;;17.92;5.78;;;;;;;27.70;100.00;153010.56;5095191;28;20184;-65
2022/07/27 04:30:10;;;;;;;31.80;8.40;;;;;;;27.81;100.00;153036.13;5095493;28;20188;-64
2022/07/27 04:32:39;;;;;;;19.80;7.68;;;;;;;28.04;100.00;153095.03;5095563;28;20545;-65
2022/07/27 04:35:07;;;;;;;29.65;7.18;;;;;;;28.12;100.00;153115.56;5095885;28;20638;-65
2022/07/27 04:37:34;;;;;;;17.90;7.93;;;;;;;28.33;100.00;153169.31;5095622;28;20684;-65
2022/07/27 04:40:02;;;;;;;29.45;7.47;;;;;;;28.72;100.00;153267.94;5095453;28;20204;-65
2022/07/27 04:42:29;;;;;;;15.20;6.63;;;;;;;28.94;100.00;153324.25;5095208;28;20271;-65
2022/07/27 04:44:56;;;;;;;18.90;7.28;;;;;;;29.14;100.00;153372.94;5095277;28;20184;-65
2022/07/27 04:47:23;;;;;;;22.15;7.28;;;;;;;29.35;100.00;153426.78;5095338;28;20286;-65
2022/07/27 04:49:51;;;;;;;20.10;6.72;;;;;;;29.59;100.00;153488.28;5094981;28;20183;-66
2022/07/27 04:52:18;;;;;;;16.25;6.25;;;;;;;29.71;98.28;153519.00;5095106;28;20190;-64
2022/07/27 04:54:45;;;;;;;15.23;6.05;;;;;;;29.72;96.92;153520.28;5094972;28;20207;-65
2022/07/27 04:57:12;;;;;;;22.67;8.30;;;;;;;30.05;100.00;153604.91;5095117;28;20184;-66
2022/07/27 04:59:39;;;;;;;19.73;7.20;;;;;;;30.16;99.22;153633.13;5094471;28;20257;-66
2022/07/27 05:02:06;;;;;;;10.77;6.18;;;;;;;30.26;97.81;153658.72;5094685;28;20190;-66
2022/07/27 05:04:33;;;;;;;30.63;7.80;;;;;;;30.48;100.00;153712.63;5093779;28;20243;-66
2022/07/27 05:07:01;;;;;;;46.67;10.82;;;;;;;30.39;100.00;153692.06;5095288;28;20184;-66
2022/07/27 05:09:28;;;;;;;60.92;10.77;;;;;;;30.38;100.00;153689.50;5094602;28;20189;-65
2022/07/27 05:11:55;;;;;;;43.30;9.52;;;;;;;30.51;100.00;153721.59;5094354;28;20230;-65
2022/07/27 05:14:22;;;;;;;35.30;10.40;;;;;;;30.57;100.00;153737.00;5094330;28;20634;-66
2022/07/27 05:16:49;;;;;;;41.88;10.38;;;;;;;30.48;100.00;153712.63;5095003;28;20184;-66
2022/07/27 05:19:16;;;;;;;36.83;8.88;;;;;;;30.47;100.00;153710.09;5094392;28;20208;-66
2022/07/27 05:21:43;;;;;;;42.70;10.07;;;;;;;30.55;100.00;153731.88;5094419;28;20547;-66
2022/07/27 05:24:11;;;;;;;45.08;10.05;;;;;;;30.64;100.00;153753.69;5094625;28;20191;-65
2022/07/27 05:26:38;;;;;;;52.42;28.92;;;;;;;30.30;100.00;153669.00;5095047;28;20188;-66
2022/07/27 05:29:05;;;;;;;18.20;8.40;;;;;;;30.35;100.00;153681.81;5094594;28;20180;-66
2022/07/27 05:31:32;;;;;;;29.98;8.55;;;;;;;30.22;100.00;153647.19;5094524;28;20275;-63
2022/07/27 05:33:59;;;;;;;18.50;7.40;;;;;;;30.26;99.98;153657.44;5093442;28;20189;-63
2022/07/27 05:36:26;;;;;;;15.18;7.72;;;;;;;30.21;98.54;153645.97;5093070;28;20184;-61
2022/07/27 05:38:53;;;;;;;22.30;7.18;;;;;;;30.35;100.00;153681.81;5093077;28;20208;-62
2022/07/27 05:41:24;;;;;;;10.32;6.47;;;;;;;30.51;96.32;153720.34;5092958;28;20184;-63
2022/07/27 05:43:51;;;;;;;9.00;6.45;;;;;;;30.63;91.57;153751.09;5092894;28;20196;-62
2022/07/27 05:46:18;;;;;;;15.05;7.28;;;;;;;30.83;94.95;153802.38;5093280;28;20188;-63
2022/07/27 05:48:45;;;;;;;5.70;5.20;;;;;;;30.59;86.00;153740.84;5093969;28;20199;-62
2022/07/27 05:51:12;;;;;;;6.13;5.40;;;;;;;30.85;85.63;153808.75;5092772;28;20184;-62
2022/07/27 05:53:39;;;;;;;8.40;6.18;;;;;;;31.27;89.10;153914.00;5092637;28;20198;-65
2022/07/27 05:56:06;;;;;;;20.27;7.82;;;;;;;31.39;87.09;153943.47;5093018;28;20614;-61
2022/07/27 05:58:35;;;;;;;30.63;7.82;;;;;;;31.48;84.76;153966.56;5092255;28;20206;-62
2022/07/27 06:01:02;;;;;;;19.38;7.47;;;;;;;31.64;79.67;154007.66;5093553;28;20180;-63
2022/07/27 06:03:29;;;;;;;27.00;8.73;;;;;;;31.79;82.70;154046.13;5093195;28;20181;-62
2022/07/27 06:08:37;;;;;;;27.63;7.13;;;;;;;32.87;72.64;154320.84;5092549;28;20192;-63
2022/07/27 06:11:04;;;;;;;16.73;6.40;;;;;;;33.20;68.82;154403.03;5092492;28;20195;-62
2022/07/27 06:13:34;;;;;;;9.30;5.28;;;;;;;32.88;67.46;154323.44;5092439;28;20758;-62
2022/07/27 06:16:03;;;;;;;12.93;5.30;;;;;;;33.34;66.68;154440.28;5092496;28;20270;-62
2022/07/27 06:18:30;;;;;;;11.80;5.65;;;;;;;33.66;62.37;154521.22;5093090;28;20709;-62
2022/07/27 06:20:58;;;;;;;12.55;5.50;;;;;;;33.89;60.07;154580.31;5092604;28;20208;-63
2022/07/27 06:23:25;;;;;;;9.60;4.70;;;;;;;34.13;58.54;154639.38;5089080;28;20299;-63
2022/07/27 06:25:51;;;;;;;5.88;5.20;;;;;;;34.37;57.82;154701.13;5083664;28;20218;-63
2022/07/27 06:28:19;;;;;;;11.57;5.00;;;;;;;34.10;57.09;154632.97;5085210;28;20199;-63
2022/07/27 06:30:46;;;;;;;9.95;4.80;;;;;;;34.01;56.69;154609.84;5091223;28;20196;-63
2022/07/27 06:33:14;;;;;;;4.93;4.53;;;;;;;33.68;57.04;154525.09;5072116;28;20185;-62
2022/07/27 06:35:42;;;;;;;5.47;4.05;;;;;;;33.72;55.36;154535.34;5072167;28;20185;-62
2022/07/27 06:38:09;;;;;;;10.10;9.20;;;;;;;34.21;55.71;154659.97;5078961;28;20270;-62
2022/07/27 06:40:36;;;;;;;12.65;5.43;;;;;;;34.73;53.26;154793.66;5082974;28;20212;-64
2022/07/27 06:43:03;;;;;;;9.63;4.32;;;;;;;35.39;51.07;154960.78;5082936;28;20283;-62
2022/07/27 06:45:31;;;;;;;6.13;5.03;;;;;;;35.57;50.62;155005.75;5071703;28;20195;-63
2022/07/27 06:47:57;;;;;;;4.50;4.03;;;;;;;35.80;49.25;155063.66;5071745;28;20199;-62
2022/07/27 06:50:26;;;;;;;4.95;4.20;;;;;;;35.88;48.22;155085.53;5071891;28;20298;-63
2022/07/27 06:52:53;;;;;;;4.13;3.92;;;;;;;35.56;48.20;155004.44;5071571;28;20193;-63
2022/07/27 06:55:20;;;;;;;6.60;4.63;;;;;;;34.63;51.50;154767.88;5071883;28;20189;-63
2022/07/27 06:57:47;;;;;;;4.57;4.43;;;;;;;34.33;51.62;154690.84;5071858;28;20242;-63
2022/07/27 07:00:15;;;;;;;5.15;4.38;;;;;;;34.46;53.43;154724.19;5071634;28;20667;-62
2022/07/27 07:02:51;;;;;;;5.50;4.82;;;;;;;35.12;51.98;154891.31;5071490;28;20195;-64
2022/07/27 07:05:18;;;;;;;4.35;3.90;;;;;;;35.37;50.55;154954.34;5071037;28;20279;-63
2022/07/27 07:07:47;;;;;;;4.28;4.03;;;;;;;35.69;49.66;155037.94;5071281;28;20227;-63
2022/07/27 07:10:14;;;;;;;4.53;4.22;;;;;;;36.09;48.49;155138.22;5083628;28;20641;-62
2022/07/27 07:12:41;;;;;;;4.45;4.22;;;;;;;36.23;47.92;155174.31;5095767;28;20317;-63
2022/07/27 07:15:09;;;;;;;4.63;4.32;;;;;;;36.03;47.45;155124.06;5096315;28;20623;-62
2022/07/27 07:17:37;;;;;;;4.40;4.07;;;;;;;35.70;49.04;155040.50;5087838;28;20226;-64
2022/07/27 07:20:04;;;;;;;5.45;4.20;;;;;;;35.22;48.23;154917.09;5075890;28;20262;-63
2022/07/27 07:22:32;;;;;;;4.07;3.78;;;;;;;35.22;51.09;154917.09;5075607;28;20188;-63
2022/07/27 07:25:01;;;;;;;4.20;3.90;;;;;;;35.23;49.98;154920.91;5075704;28;20188;-63
2022/07/27 07:27:28;;;;;;;4.40;4.00;;;;;;;35.00;49.95;154860.47;5075858;28;20185;-62
2022/07/27 07:29:55;;;;;;;4.30;4.10;;;;;;;35.35;49.54;154950.47;5074841;28;20198;-62
2022/07/27 07:32:23;;;;;;;4.72;4.47;;;;;;;35.28;49.55;154933.78;5075650;28;20226;-62
2022/07/27 07:34:51;;;;;;;6.07;4.30;;;;;;;35.11;49.40;154888.72;5075309;28;20200;-63
2022/07/27 07:37:19;;;;;;;5.10;4.05;;;;;;;35.00;50.99;154860.47;5075463;28;20208;-63
2022/07/27 07:39:46;;;;;;;5.18;4.88;;;;;;;34.99;51.46;154857.91;5075702;28;20215;-63
2022/07/27 07:42:15;;;;;;;7.30;5.50;;;;;;;35.50;51.47;154987.75;5075646;28;20181;-63
2022/07/27 07:44:42;;;;;;;5.95;4.50;;;;;;;35.64;49.09;155025.09;5075629;28;20575;-63
2022/07/27 07:47:09;;;;;;;4.50;4.20;;;;;;;35.70;49.54;155040.50;5074868;28;20181;-63
2022/07/27 07:49:37;;;;;;;4.25;3.85;;;;;;;35.47;47.30;154981.34;5079371;28;20203;-62
2022/07/27 07:52:04;;;;;;;4.72;4.43;;;;;;;35.15;50.10;154900.34;5092105;28;20214;-62
2022/07/27 07:54:31;;;;;;;5.78;5.32;;;;;;;34.71;53.40;154788.47;5095593;28;20626;-63
2022/07/27 07:56:58;;;;;;;4.68;4.30;;;;;;;34.42;54.47;154712.69;5095456;28;20199;-63
2022/07/27 07:59:26;;;;;;;5.63;5.15;;;;;;;34.24;57.51;154667.69;5094185;28;20184;-62
2022/07/27 08:01:53;;;;;;;5.05;4.75;;;;;;;33.80;59.21;154557.19;5076843;28;20188;-62
2022/07/27 08:04:20;;;;;;;7.43;4.68;;;;;;;34.29;57.90;154680.50;5095080;28;20187;-63
2022/07/27 08:06:47;;;;;;;7.97;4.75;;;;;;;34.11;58.38;154634.25;5094949;28;20253;-62
2022/07/27 08:09:15;;;;;;;5.25;4.78;;;;;;;33.72;57.42;154536.63;5094449;28;20180;-63
2022/07/27 08:11:42;;;;;;;4.82;4.53;;;;;;;33.58;57.58;154499.31;5094448;28;20187;-62
2022/07/27 08:14:13;;;;;;;4.22;3.90;;;;;;;33.26;58.83;154419.75;5090744;28;20189;-63
2022/07/27 08:16:41;;;;;;;4.63;4.43;;;;;;;32.97;58.50;154346.47;5075726;28;20291;-63
2022/07/27 08:19:08;;;;;;;5.20;4.10;;;;;;;33.03;58.59;154360.63;5082376;28;20382;-63
2022/07/27 08:21:35;;;;;;;4.47;4.15;;;;;;;33.03;56.57;154360.63;5074192;28;20697;-63
2022/07/27 08:24:02;;;;;;;4.28;4.07;;;;;;;33.36;55.43;154444.09;5075017;28;20208;-63
2022/07/27 08:26:33;;;;;;;4.38;4.18;;;;;;;33.12;56.86;154383.75;5082942;28;20306;-64
2022/07/27 08:29:00;;;;;;;4.20;4.03;;;;;;;32.71;60.61;154278.50;5094566;28;20291;-64
2022/07/27 08:31:27;;;;;;;6.60;3.60;;;;;;;33.14;61.18;154388.94;5087760;28;20192;-64
2022/07/27 08:33:55;;;;;;;3.53;3.42;;;;;;;32.47;63.59;154219.38;5074761;28;20204;-63
2022/07/27 08:36:22;;;;;;;5.75;4.28;;;;;;;32.25;64.91;154161.66;5090768;28;20207;-63
2022/07/27 08:38:49;;;;;;;5.10;4.10;;;;;;;32.20;66.34;154148.81;5094575;28;20199;-62
2022/07/27 08:41:19;;;;;;;4.57;4.30;;;;;;;31.96;65.97;154089.72;5085686;28;20215;-62
2022/07/27 08:43:48;;;;;;;3.80;3.60;;;;;;;32.09;66.66;154121.84;5079214;28;20211;-63
2022/07/27 08:46:17;;;;;;;4.25;3.95;;;;;;;31.92;65.23;154079.47;5084585;28;20218;-63
2022/07/27 08:48:44;;;;;;;4.22;4.03;;;;;;;31.48;65.76;153966.56;5074515;28;20683;-64
2022/07/27 08:51:13;;;;;;;4.15;3.95;;;;;;;31.57;66.86;153990.94;5088047;28;20196;-62
2022/07/27 08:53:40;;;;;;;4.03;3.92;;;;;;;31.28;71.40;153917.81;5093716;28;20200;-62
2022/07/27 08:56:09;;;;;;;4.18;3.97;;;;;;;31.38;76.30;153940.91;5093821;28;20180;-63
2022/07/27 08:58:36;;;;;;;4.30;4.00;;;;;;;31.03;81.19;153853.69;5094004;28;20192;-62
2022/07/27 09:01:03;;;;;;;4.63;4.43;;;;;;;31.40;82.78;153946.06;5093671;28;20261;-62
2022/07/27 09:03:30;;;;;;;4.75;4.43;;;;;;;31.47;84.11;153964.00;5093623;28;20184;-64
2022/07/27 09:05:57;;;;;;;4.80;4.53;;;;;;;31.67;84.98;154015.34;5093651;28;20187;-63
2022/07/27 09:08:30;;;;;;;4.70;4.50;;;;;;;31.75;89.19;154035.84;5094036;28;20608;-63
2022/07/27 09:10:58;;;;;;;4.80;4.22;;;;;;;31.64;93.17;154007.66;5093441;28;20191;-63
2022/07/27 09:13:26;;;;;;;4.80;4.45;;;;;;;31.56;97.58;153988.44;5093266;28;20231;-63
2022/07/27 09:15:55;;;;;;;4.65;4.53;;;;;;;31.79;100.00;154044.81;5093718;28;20184;-62
2022/07/27 09:18:24;;;;;;;3.90;3.80;;;;;;;31.88;99.07;154069.22;5093353;28;20191;-62
2022/07/27 09:21:25;;;;;;;4.15;4.00;;;;;;;32.15;100.00;154137.28;5093340;28;20229;-63
2022/07/27 09:23:54;;;;;;;4.53;4.25;;;;;;;32.17;99.27;154142.38;5051067;28;20216;-63
2022/07/27 09:26:23;;;;;;;4.13;3.92;;;;;;;31.86;100.00;154062.81;5042949;28;20209;-63
2022/07/27 09:28:53;;;;;;;4.90;4.32;;;;;;;31.55;100.00;153985.84;5051712;28;20243;-64
2022/07/27 09:31:21;;;;;;;4.30;4.10;;;;;;;31.09;100.00;153869.09;5045671;28;20197;-63
2022/07/27 09:33:49;;;;;;;4.63;4.30;;;;;;;30.87;100.00;153812.63;5034910;28;20198;-62
2022/07/27 09:36:17;;;;;;;4.10;3.90;;;;;;;30.97;100.00;153837.00;5047828;28;20197;-62
2022/07/27 09:38:57;;;;;;;3.95;3.60;;;;;;;30.80;100.00;153795.97;5050425;28;20304;-65
2022/07/27 09:41:24;;;;;;;3.88;3.60;;;;;;;30.67;100.00;153761.34;5050575;28;20332;-63
2022/07/27 09:43:56;;;;;;;4.13;3.92;;;;;;;30.52;100.00;153722.88;5040508;28;20296;-63
2022/07/27 09:46:30;;;;;;;4.43;4.03;;;;;;;30.63;100.00;153751.09;5029783;28;20196;-63
2022/07/27 09:48:58;;;;;;;4.45;4.07;;;;;;;30.75;100.00;153783.16;5029947;28;20201;-64
2022/07/27 09:51:25;;;;;;;6.97;4.32;;;;;;;30.97;100.00;153838.28;5030613;28;20276;-63
2022/07/27 09:53:53;;;;;;;4.18;3.97;;;;;;;31.24;100.00;153906.25;5035019;28;20182;-62
2022/07/27 09:56:26;;;;;;;4.38;4.13;;;;;;;31.02;100.00;153851.13;5073368;28;20285;-66
2022/07/27 09:58:55;;;;;;;3.70;3.60;;;;;;;31.02;100.00;153849.88;5073333;28;20192;-66
2022/07/27 10:01:24;;;;;;;4.95;4.00;;;;;;;30.64;100.00;153754.91;5073222;28;20201;-66
2022/07/27 10:03:53;;;;;;;3.90;3.80;;;;;;;30.79;100.00;153793.41;5073588;28;20647;-67
2022/07/27 10:06:21;;;;;;;4.60;4.40;;;;;;;30.85;100.00;153807.53;5072893;28;20195;-66
2022/07/27 10:08:49;;;;;;;4.75;4.45;;;;;;;30.92;100.00;153824.16;5071606;28;20280;-66
2022/07/27 10:11:17;;;;;;;4.82;4.30;;;;;;;30.45;100.00;153704.94;5072880;28;20181;-65
2022/07/27 10:13:46;;;;;;;6.13;4.38;;;;;;;30.60;100.00;153743.38;5072944;28;20232;-66
2022/07/27 10:16:16;;;;;;;8.13;7.47;;;;;;;30.62;100.00;153749.81;5073318;28;20185;-66
2022/07/27 10:18:55;;;;;;;7.43;7.13;;;;;;;30.65;100.00;153757.50;5072732;28;20195;-67
2022/07/27 10:21:24;;;;;;;7.85;6.85;;;;;;;30.54;100.00;153729.31;5072490;28;20211;-66
2022/07/27 10:23:56;;;;;;;8.63;8.02;;;;;;;30.70;100.00;153769.03;5072888;28;20214;-66
2022/07/27 10:26:30;;;;;;;10.27;9.57;;;;;;;31.04;100.00;153856.28;5072324;28;20185;-64
2022/07/27 10:29:02;;;;;;;10.18;8.65;;;;;;;31.10;100.00;153871.69;5072569;28;20263;-66
2022/07/27 10:31:31;;;;;;;6.82;6.28;;;;;;;31.13;100.00;153878.06;5072495;28;20558;-67
2022/07/27 10:34:01;;;;;;;5.80;4.95;;;;;;;30.55;100.00;153731.88;5071406;28;20192;-66
2022/07/27 10:36:53;;;;;;;5.07;4.68;;;;;;;30.60;100.00;153743.38;5072522;28;20193;-66
2022/07/27 10:39:29;;;;;;;5.00;4.80;;;;;;;30.81;100.00;153797.22;5072579;28;20547;-66
2022/07/27 10:42:22;;;;;;;5.03;4.68;;;;;;;30.35;100.00;153680.53;5072824;28;20546;-66
2022/07/27 10:44:55;;;;;;;4.32;4.13;;;;;;;30.34;100.00;153679.25;5071198;28;20197;-67
2022/07/27 10:47:44;;;;;;;5.32;4.20;;;;;;;29.84;100.00;153551.03;5072684;28;20651;-66
2022/07/27 10:50:30;;;;;;;6.78;4.47;;;;;;;29.97;100.00;153584.41;5069824;28;20733;-65
2022/07/27 10:53:00;;;;;;;4.28;3.90;;;;;;;29.84;100.00;153551.03;5072317;28;20193;-63
2022/07/27 10:55:49;;;;;;;4.07;3.88;;;;;;;29.93;100.00;153574.16;5072802;28;20255;-65
2022/07/27 10:58:46;;;;;;;4.63;4.40;;;;;;;29.78;100.00;153536.97;5072376;28;20720;-66
2022/07/27 11:01:15;;;;;;;3.72;3.42;;;;;;;29.98;100.00;153587.00;5072950;28;20307;-66
2022/07/27 11:03:51;;;;;;;3.33;3.22;;;;;;;29.95;100.00;153579.31;5071978;28;20187;-67
2022/07/27 11:06:26;;;;;;;4.15;3.30;;;;;;;29.48;100.00;153461.41;5072658;28;20266;-66
2022/07/27 11:08:54;;;;;;;3.13;3.03;;;;;;;29.72;100.00;153521.59;5072565;28;20188;-66
2022/07/27 11:11:23;;;;;;;3.10;2.83;;;;;;;29.68;100.00;153510.06;5072328;28;20262;-66
2022/07/27 11:13:52;;;;;;;3.30;3.15;;;;;;;29.71;100.00;153517.72;5072075;28;20319;-67
2022/07/27 11:16:21;;;;;;;3.70;3.40;;;;;;;29.66;100.00;153504.94;5072274;28;20280;-67
2022/07/27 11:18:57;;;;;;;3.40;3.05;;;;;;;29.43;100.00;153448.56;5072681;28;20271;-66
2022/07/27 11:21:26;;;;;;;3.65;3.35;;;;;;;29.69;100.00;153512.63;5071745;28;20219;-66
2022/07/27 11:23:55;;;;;;;4.35;3.40;;;;;;;29.71;100.00;153517.72;5072192;28;20643;-66
2022/07/27 11:26:23;;;;;;;3.10;2.95;;;;;;;29.62;100.00;153494.72;5072840;28;20189;-65